Antlers, Colorado
Current Conditions -  °F | °C
As of 12:53 AM on Tuesday 21 Oct 2014 (Local Time) from KEEO Reporting Station
Few Clouds Few Clouds  
Wind Chill: 40°   Ceiling: Unl
Heat Index: 44°   Visibility: 10mi
Dew Point: 35°   Wind: 8mph
Humidity: 71%   Direction: 90°E
Pressure: 30.13"   Gusts: NA
Location:  39.7934°N, 108.135°W
Report Text: KEEO 210653Z AUTO 09007KT 10SM FEW080 07/02 A3013 RMK AO2 SLP138 T00670017 402170011
Loading
Personal Weather Stations






























Interactive Weather Map
Tropical Storm Tracking
New forecast layout! Learn more

10-Day Weather Forecast

Advertisements
Track Severe Weather on mobile